Daily Weather Observations for Burdell (Townsville)
For Friday 1st February 2019

This table is designed for ease of comparison to Bureau of Meteorology recorded weather data.

Station Details Name: BURDELL Lat: -19.24 Lon: 146.69 Height: 8.5 m
Date/Time
EST
Temp
°C
App
Temp
°C
Dew
Point
°C
Rel
Hum
%
Delta-T
°C
Wind Press
QNH
hPa
Press
MSL
hPa
Rain since
9am
mm
Dir  Spd
km/h
Gust
km/h
Spd
kts
Gust
kts
01/11:30pm 25.7 30.3 25.5 99 0.1 SE 21 32 11 17 1003.5 1003.5 75.2
01/11:00pm 25.7 27.5 25.7 100 0.0 ENE 30 37 16 20 1003.8 1003.8 75.0
01/10:30pm 25.8 29.8 25.8 100 0.0 NE 26 39 14 21 1003.9 1003.9 75.0
01/10:00pm 26.1 30.4 26.1 100 -0.0 NE 18 29 10 16 1003.8 1003.8 69.6
01/09:30pm 26.1 29.4 25.9 99 0.1 ENE 23 34 13 18 1003.8 1003.8 68.1
01/09:00pm 26.1 29.2 26.1 100 -0.0 ENE 24 29 13 16 1003.8 1003.8 67.8
01/08:30pm 26.2 30.7 26.2 100 -0.0 ENE 16 18 8 10 1003.5 1003.5 67.8
01/08:00pm 26.1 30.3 25.9 99 0.1 E 19 26 10 14 1003.5 1003.5 63.8
01/07:30pm 25.9 30.1 25.9 100 0.0 E 15 21 8 11 1003.5 1003.5 63.8
01/07:00pm 25.8 30.4 25.8 100 0.0 ENE 13 18 7 10 1003.0 1003.0 63.8
01/06:30pm 26.1 30.1 25.9 99 0.1 ENE 20 26 11 14 1002.8 1002.8 63.8
01/06:00pm 25.9 29.3 25.7 99 0.1 ENE 20 26 11 14 1002.3 1002.3 63.3
01/05:30pm 25.8 30.2 25.8 100 0.0 ENE 19 26 10 14 1002.1 1002.1 63.3
01/05:00pm 26.1 30.5 26.1 100 0.0 ENE 14 18 8 10 1001.7 1001.7 62.5
01/04:30pm 25.8 31.5 25.8 100 0.0 ESE 10 13 5 7 1001.8 1001.8 62.3
01/04:00pm 25.7 32.3 25.7 100 0.0 SE 3 8 2 4 1001.7 1001.7 61.7
01/03:30pm 25.6 31.4 25.6 100 0.0 ENE 6 8 3 4 1001.7 1001.7 61.5
01/03:00pm 25.5 30.9 25.5 100 0.0 NNE 8 16 4 9 1002.1 1002.1 60.7
01/02:30pm 25.6 31.4 25.6 100 0.0 NE 6 10 3 6 1002.2 1002.2 58.9
01/02:00pm 25.6 30.5 25.6 100 -0.0 ENE 13 18 7 10 1002.3 1002.3 57.2
01/01:30pm 25.8 28.1 25.8 100 0.0 ENE 24 34 13 18 1002.6 1002.6 35.6
01/01:00pm 26.3 29.4 26.3 100 -0.0 ENE 23 32 12 17 1002.9 1002.9 33.3
01/12:30pm 25.7 29.6 25.7 100 0.0 ENE 21 29 12 16 1003.0 1003.0 30.0
01/12:00pm 25.6 29.2 25.6 100 0.0 E 18 23 10 13 1003.5 1003.5 19.3
01/11:30am 25.4 28.0 25.4 100 -0.0 E 24 37 13 20 1003.9 1003.9 15.0
01/11:00am 25.6 27.8 25.6 100 0.0 ENE 27 34 15 18 1004.2 1004.2 14.2
01/10:30am 25.2 29.2 25.2 100 0.0 ENE 17 23 9 13 1004.4 1004.4 12.0
01/10:00am 25.3 29.8 25.3 100 0.0 NE 14 18 8 10 1004.6 1004.6 7.9
01/09:30am 25.7 30.2 25.7 100 0.0 NE 17 21 9 11 1004.5 1004.5 3.1
01/09:00am 25.8 31.1 25.8 100 0.0 ENE 11 18 6 10 1004.5 1004.5 0.0
01/08:30am 25.3 30.2 25.3 100 0.0 ENE 10 16 6 9 1004.3 1004.3 195.6
01/08:00am 25.0 28.9 25.0 100 0.0 ENE 16 21 9 11 1004.2 1004.2 195.6
01/07:30am 24.8 27.7 24.8 100 -0.0 ENE 20 26 11 14 1003.8 1003.8 195.1
01/07:00am 24.8 26.7 24.8 100 0.0 E 27 34 14 18 1003.6 1003.6 193.3
01/06:30am 24.9 28.0 24.9 100 0.0 ESE 18 34 10 18 1003.6 1003.6 185.0
01/06:00am 24.7 28.4 24.7 100 -0.0 SE 21 26 11 14 1003.0 1003.0 166.7
01/05:30am 24.9 29.3 24.9 100 0.0 SE 23 34 13 18 1002.9 1002.9 155.2
01/05:00am 25.2 28.3 25.2 100 0.0 E 20 32 11 17 1002.7 1002.7 144.3
01/04:30am 25.4 29.6 25.4 100 -0.0 ESE 19 32 10 17 1002.2 1002.2 136.4
01/04:00am 25.2 29.0 25.2 100 0.0 E 22 29 12 16 1002.1 1002.1 132.6
01/03:30am 25.4 26.8 25.4 100 -0.0 E 36 42 20 23 1002.2 1002.2 125.8
01/03:00am 25.4 27.7 25.4 100 -0.0 SE 25 32 14 17 1001.8 1001.8 110.3
01/02:30am 25.5 28.8 25.5 100 0.0 SE 22 32 12 17 1002.2 1002.2 108.5
01/02:00am 25.5 28.0 25.5 100 0.0 SE 25 37 14 20 1002.4 1002.4 106.0
01/01:30am 25.6 28.8 25.6 100 0.0 SE 22 37 12 20 1003.3 1003.3 105.2
01/01:00am 25.8 29.8 25.8 100 0.0 E 18 23 10 13 1004.1 1004.1 103.4
01/12:30am 25.6 30.9 25.6 100 0.0 E 9 16 5 9 1004.4 1004.4 101.9
01/12:00am 25.3 30.5 25.3 100 0.0 ENE 10 16 5 9 1004.8 1004.8 100.9
 


NOTE: The apparent temperature specified in the table above is calculated using both the Heat Index and Steadman method. This differs to the Bureau of Meteorology's calculation which uses the Steadman method alone.